TAF/METAR LISTING

Current time:2/18/6:41 Z
Looking Back to:2/18/06:41 Z, going back 0 hour(s)

METAR:

SPECI PAFA 180616Z 00000KT 1 3/4SM -SN OVC015 M06/M09 A2967 RMK AO2
SNB0554 T10561089 PNO =

______________________________________

TAF:
TAFAFA
TAF AMD
PAFA 180610Z 1806/1912 25003KT 3SM -SN OVC023
FM180700 33005KT 1 1/2SM -SN BR SCT015 OVC025
FM181500 24005KT 3SM -SN BR OVC025
FM182200 VRB03KT P6SM VCSH SCT025 OVC050
FM190900 VRB03KT 3SM -SN OVC025 =